Chapman, NE

2:33 AM CDT on August 30, 2015 (GMT -0500)
MesoWest | | Change Station
CLOSE
Current Station
Personal Weather Station
Location: Chapman, NE
Elevation: 1779 ft
Nearby Weather Stations

Elev 1779 ft 41.01 °N, 98.19 °W | Updated 8 days ago

Clear
Clear
60 °F
Feels Like 60 °F
N
6
Wind Variable Wind from SSW
Gusts mph

Today
High -- | Low -- °F
--% Chance of Precip.
Yesterday
High -- | Low -- °F
Precip. -- in
6:57 AM 8:08 PM
Full, 100% visible
Pressure 30.05 in
Visibility 6.0 miles
Clouds Mostly Cloudy 400 ft
Dew Point 59 °F
Humidity 96%
Rainfall in
Snow Depth Not available.
UV 0 out of 12
Pollen 9.60 out of 12
Air Quality Not available.
Flu Activity Not available.
SPECI KGRI 300707Z AUTO 18010KT 6SM BR BKN004 17/16 A3005 RMK AO2 T01670161
Pressure 30.05 in
Visibility 6.0 miles
Clouds Mostly Cloudy 400 ft
Dew Point 59 °F
Humidity 96%
Rainfall in
Snow Depth Not available.
UV 0 out of 12
Pollen 9.60 out of 12
Air Quality Not available.
Flu Activity Not available.
SPECI KGRI 300707Z AUTO 18010KT 6SM BR BKN004 17/16 A3005 RMK AO2 T01670161

10-Day Weather Forecast

×

Almanac

Astronomy

Aug. 30, 2015 Rise Set
Actual Time
Civil Twilight
Nautical Twilight
Astronomical Twilight
Moon
Length of Visible Light
Length of Day
Tomorrow will be .
, % of the Moon is Illuminated

Today's Extremes

State Highs State Lows

Community

WunderPhotos

Upload Photos

1,850,904 photos uploaded!

WunderBlogs® & News

Nearby

Air Quality

  Air Quality AQ Index Pollutant
Not available.

Snow Depth

Station Depth Elevation

Earthquake Activity

City Distance Mag. Time & Date
Minimum magnitude displayed is 2.5.

Coastal Water Temperatures

Place Temperature

Stations

Nearby Weather Stations

Station Location Temp. Windchill Dew Point Humidity Wind Precip. Elev Updated Type